createdAt,value
2017-11-18T00:01:50.190Z,80.70
2017-11-18T00:04:17.729Z,80.80
2017-11-18T00:06:45.220Z,81.20
2017-11-18T00:09:12.734Z,81.60
2017-11-18T00:11:40.268Z,81.50
2017-11-18T00:14:07.805Z,81.30
2017-11-18T00:16:36.056Z,82.10
2017-11-18T00:19:03.547Z,82.10
2017-11-18T00:21:31.828Z,82.70
2017-11-18T00:24:00.081Z,83.40
2017-11-18T00:26:27.600Z,83.40
2017-11-18T00:28:55.137Z,84.20
2017-11-18T00:31:22.664Z,84.20
2017-11-18T00:33:50.237Z,84.60
2017-11-18T00:36:17.753Z,85.00
2017-11-18T00:38:45.282Z,85.70
2017-11-18T00:41:13.548Z,87.00
2017-11-18T00:43:41.071Z,86.90
2017-11-18T00:46:08.637Z,87.80
2017-11-18T00:48:36.134Z,88.60
2017-11-18T00:51:03.635Z,88.80
2017-11-18T00:53:31.159Z,88.80
2017-11-18T00:55:58.693Z,88.90
2017-11-18T00:58:26.198Z,89.30
2017-11-18T01:00:53.811Z,89.60
2017-11-18T01:03:21.301Z,89.50
2017-11-18T01:05:48.998Z,89.50
2017-11-18T01:08:17.297Z,89.30
2017-11-18T01:10:44.793Z,89.20
2017-11-18T01:13:12.325Z,89.10
2017-11-18T01:15:39.849Z,89.40
2017-11-18T01:18:07.377Z,89.50
2017-11-18T01:20:34.876Z,89.00
2017-11-18T01:23:02.416Z,88.10
2017-11-18T01:25:29.916Z,88.00
2017-11-18T01:27:57.453Z,88.00
2017-11-18T01:30:24.968Z,88.10
2017-11-18T01:32:52.490Z,87.90
2017-11-18T01:35:19.995Z,88.00
2017-11-18T01:37:47.521Z,88.00
2017-11-18T01:40:15.024Z,88.10
2017-11-18T01:42:42.539Z,89.00
2017-11-18T01:45:10.041Z,89.80
2017-11-18T01:47:37.581Z,89.50
2017-11-18T01:50:05.077Z,89.70
2017-11-18T01:52:32.563Z,89.50
2017-11-18T01:55:00.095Z,89.20
2017-11-18T01:57:28.344Z,89.20
2017-11-18T01:59:55.868Z,89.00
2017-11-18T02:02:35.342Z,88.60
2017-11-18T02:05:02.953Z,88.70
2017-11-18T02:07:30.460Z,88.10
2017-11-18T02:09:57.985Z,88.00
2017-11-18T02:12:25.510Z,88.10
2017-11-18T02:14:53.778Z,87.70
2017-11-18T02:17:21.323Z,87.60
2017-11-18T02:19:48.825Z,87.20
2017-11-18T02:22:17.121Z,87.60
2017-11-18T02:24:45.395Z,87.40
2017-11-18T02:27:13.655Z,88.10
2017-11-18T02:29:41.205Z,88.00
2017-11-18T02:32:08.708Z,88.50
2017-11-18T02:34:36.245Z,89.40
2017-11-18T02:37:03.777Z,89.00
2017-11-18T02:39:31.324Z,88.60
2017-11-18T02:41:58.820Z,88.20
2017-11-18T02:44:26.339Z,88.00
2017-11-18T02:46:53.835Z,88.10
2017-11-18T02:49:21.417Z,88.00
2017-11-18T02:51:48.929Z,88.10
2017-11-18T02:54:16.434Z,87.80
2017-11-18T02:56:43.965Z,87.70
2017-11-18T02:59:11.459Z,87.50
2017-11-18T03:01:38.988Z,87.20
2017-11-18T03:04:06.489Z,87.00
2017-11-18T03:06:34.030Z,87.00
2017-11-18T03:09:01.533Z,86.90
2017-11-18T03:11:29.035Z,87.20
2017-11-18T03:13:56.556Z,87.10
2017-11-18T03:16:24.079Z,86.70
2017-11-18T03:18:51.630Z,86.60
2017-11-18T03:21:19.140Z,86.80
2017-11-18T03:23:46.640Z,86.90
2017-11-18T03:26:15.022Z,86.80
2017-11-18T03:28:42.509Z,86.70
2017-11-18T03:31:10.007Z,87.10
2017-11-18T03:33:37.548Z,87.00
2017-11-18T03:36:05.045Z,87.50
2017-11-18T03:38:32.564Z,87.60
2017-11-18T03:41:00.060Z,87.80
2017-11-18T03:43:27.577Z,87.80
2017-11-18T03:45:55.112Z,87.50
2017-11-18T03:48:22.592Z,87.70
2017-11-18T03:50:50.851Z,88.10
2017-11-18T03:53:19.159Z,88.60
2017-11-18T03:55:46.693Z,88.40
2017-11-18T03:58:14.196Z,89.00
2017-11-18T04:00:47.408Z,89.20
2017-11-18T04:03:14.917Z,89.00
2017-11-18T04:05:42.443Z,89.40
2017-11-18T04:08:09.946Z,89.40
2017-11-18T04:10:38.302Z,90.90
2017-11-18T04:13:05.804Z,90.10
2017-11-18T04:15:34.105Z,89.60
2017-11-18T04:18:01.600Z,89.60
2017-11-18T04:20:29.172Z,90.00
2017-11-18T04:22:56.656Z,90.00
2017-11-18T04:25:24.317Z,90.10
2017-11-18T04:27:51.821Z,89.50
2017-11-18T04:30:19.333Z,89.50
2017-11-18T04:32:46.877Z,89.60
2017-11-18T04:35:14.371Z,89.30
2017-11-18T04:37:42.053Z,89.00
2017-11-18T04:40:10.317Z,89.10
2017-11-18T04:42:37.864Z,89.00
2017-11-18T04:45:05.491Z,88.80
2017-11-18T04:47:33.012Z,88.70
2017-11-18T04:50:00.507Z,89.00
2017-11-18T04:52:28.027Z,89.40
2017-11-18T04:54:55.526Z,89.20
2017-11-18T04:57:23.828Z,90.00
2017-11-18T04:59:51.376Z,90.00
2017-11-18T05:02:19.644Z,91.30
2017-11-18T05:04:47.911Z,91.00
2017-11-18T05:07:15.424Z,90.90
2017-11-18T05:09:42.937Z,91.00
2017-11-18T05:12:10.471Z,91.30
2017-11-18T05:14:38.184Z,91.10
2017-11-18T05:17:06.540Z,91.50
2017-11-18T05:19:34.057Z,91.40
2017-11-18T05:22:01.598Z,91.00
2017-11-18T05:24:29.861Z,91.60
2017-11-18T05:26:57.431Z,91.50
2017-11-18T05:29:25.704Z,91.20
2017-11-18T05:31:53.216Z,91.00
2017-11-18T05:34:20.837Z,90.70
2017-11-18T05:36:48.348Z,91.70
2017-11-18T05:39:15.857Z,92.10
2017-11-18T05:41:43.395Z,92.30
2017-11-18T05:44:10.934Z,92.40
2017-11-18T05:46:38.440Z,92.60
2017-11-18T05:49:05.967Z,92.30
2017-11-18T05:51:33.521Z,92.10
2017-11-18T05:54:01.012Z,91.60
2017-11-18T05:56:28.526Z,91.30
2017-11-18T05:58:56.801Z,91.50
2017-11-18T06:01:25.089Z,91.40
2017-11-18T06:03:53.351Z,91.50
2017-11-18T06:06:20.889Z,91.40
2017-11-18T06:08:49.209Z,92.00
2017-11-18T06:11:17.525Z,92.20
2017-11-18T06:13:45.047Z,92.10
2017-11-18T06:16:13.353Z,92.40
2017-11-18T06:18:40.936Z,92.20
2017-11-18T06:21:08.434Z,92.40
2017-11-18T06:23:35.922Z,92.90
2017-11-18T06:26:04.527Z,92.10
2017-11-18T06:28:32.020Z,92.00
2017-11-18T06:30:59.563Z,92.10
2017-11-18T06:33:27.059Z,92.10
2017-11-18T06:35:54.592Z,92.40
2017-11-18T06:38:22.096Z,92.70
2017-11-18T06:40:49.580Z,92.80
2017-11-18T06:43:17.125Z,92.70
2017-11-18T06:45:44.627Z,92.60
2017-11-18T06:48:12.903Z,92.20
2017-11-18T06:50:41.233Z,92.60
2017-11-18T06:53:08.754Z,92.60
2017-11-18T06:55:36.299Z,92.40
2017-11-18T06:58:03.788Z,92.00
2017-11-18T07:00:31.317Z,91.80
2017-11-18T07:02:59.036Z,91.70
2017-11-18T07:05:26.579Z,91.50
2017-11-18T07:07:54.096Z,92.00
2017-11-18T07:10:21.624Z,92.40
2017-11-18T07:12:49.187Z,92.50
2017-11-18T07:15:16.683Z,92.40
2017-11-18T07:17:44.229Z,91.00
2017-11-18T07:20:11.789Z,90.70
2017-11-18T07:22:39.428Z,91.30
2017-11-18T07:25:06.974Z,90.90
2017-11-18T07:27:35.276Z,90.10
2017-11-18T07:30:02.818Z,90.00
2017-11-18T07:32:31.076Z,90.50
2017-11-18T07:34:58.621Z,90.40
2017-11-18T07:37:26.216Z,90.40
2017-11-18T07:39:53.720Z,90.40
2017-11-18T07:42:21.246Z,89.80
2017-11-18T07:44:49.523Z,90.30
2017-11-18T07:47:17.033Z,90.40
2017-11-18T07:49:44.593Z,90.40
2017-11-18T07:52:12.125Z,90.10
2017-11-18T07:54:40.388Z,91.20
2017-11-18T07:57:07.930Z,90.30
2017-11-18T07:59:35.427Z,90.10
2017-11-18T08:02:03.692Z,89.60
2017-11-18T08:04:31.221Z,89.40
2017-11-18T08:06:58.773Z,89.20
2017-11-18T08:09:26.284Z,89.40
2017-11-18T08:11:53.775Z,89.40
2017-11-18T08:14:22.068Z,89.00
2017-11-18T08:16:49.582Z,88.70
2017-11-18T08:19:17.173Z,88.10
2017-11-18T08:21:44.732Z,88.30
2017-11-18T08:24:12.306Z,88.20
2017-11-18T08:26:40.660Z,85.90
2017-11-18T08:29:08.184Z,85.90
2017-11-18T08:31:35.698Z,85.00
2017-11-18T08:34:04.010Z,85.20
2017-11-18T08:36:36.351Z,84.30
2017-11-18T08:39:04.752Z,84.60
2017-11-18T08:41:33.028Z,83.30
2017-11-18T08:44:01.336Z,83.00
2017-11-18T08:46:28.840Z,83.00
2017-11-18T08:48:56.337Z,84.10
2017-11-18T08:51:23.920Z,84.30
2017-11-18T08:53:51.430Z,83.50
2017-11-18T08:56:18.946Z,84.30
2017-11-18T08:58:46.484Z,83.40
2017-11-18T09:01:14.033Z,83.00
2017-11-18T09:03:41.532Z,83.50
2017-11-18T09:06:09.835Z,81.90
2017-11-18T09:08:37.390Z,81.80
2017-11-18T09:11:04.895Z,81.50
2017-11-18T09:13:32.510Z,81.60
2017-11-18T09:16:00.012Z,81.70
2017-11-18T09:18:27.555Z,81.00
2017-11-18T09:20:55.061Z,81.80
2017-11-18T09:23:22.582Z,81.40
2017-11-18T09:25:50.097Z,80.90
2017-11-18T09:28:17.667Z,81.10
2017-11-18T09:30:45.655Z,80.20
2017-11-18T09:33:13.990Z,78.30
2017-11-18T09:35:41.491Z,78.20
2017-11-18T09:38:08.988Z,76.20
2017-11-18T09:40:36.559Z,76.50
2017-11-18T09:43:04.061Z,77.70
2017-11-18T09:45:31.595Z,76.30
2017-11-18T09:47:59.113Z,76.20
2017-11-18T09:50:26.639Z,77.40
2017-11-18T09:52:54.187Z,77.40
2017-11-18T09:55:21.769Z,75.00
2017-11-18T09:57:49.299Z,77.40
2017-11-18T10:00:16.787Z,75.90
2017-11-18T10:02:44.324Z,75.10
2017-11-18T10:05:12.095Z,76.50
2017-11-18T10:07:39.677Z,74.50
2017-11-18T10:10:07.205Z,74.30
2017-11-18T10:12:34.700Z,72.00
2017-11-18T10:15:02.254Z,73.80
2017-11-18T10:17:29.764Z,71.20
2017-11-18T10:19:57.287Z,69.60
2017-11-18T10:22:24.814Z,70.40
2017-11-18T10:24:53.110Z,73.10
2017-11-18T10:27:21.364Z,73.30
2017-11-18T10:29:48.885Z,73.40
2017-11-18T10:32:16.377Z,72.50
2017-11-18T10:34:43.917Z,72.80
2017-11-18T10:37:11.424Z,74.50
2017-11-18T10:39:38.955Z,72.90
2017-11-18T10:42:06.445Z,74.20
2017-11-18T10:44:33.980Z,73.20
2017-11-18T10:47:01.491Z,73.40
2017-11-18T10:49:30.036Z,70.20
2017-11-18T10:51:57.607Z,70.20
2017-11-18T10:54:25.131Z,72.00
2017-11-18T10:59:19.256Z,71.60
2017-11-18T11:01:47.271Z,71.50
2017-11-18T11:04:15.275Z,72.50
2017-11-18T11:06:43.319Z,72.90
2017-11-18T11:09:11.604Z,72.60
2017-11-18T11:11:39.420Z,70.80
2017-11-18T11:14:06.977Z,69.70
2017-11-18T11:16:34.516Z,69.40
2017-11-18T11:19:02.820Z,68.10
2017-11-18T11:21:30.329Z,67.90
2017-11-18T11:23:57.866Z,68.10
2017-11-18T11:26:25.383Z,67.40
2017-11-18T11:28:53.683Z,67.00
2017-11-18T11:31:21.209Z,67.00
2017-11-18T11:33:48.716Z,67.30
2017-11-18T11:36:16.289Z,66.40
2017-11-18T11:38:43.792Z,66.50
2017-11-18T11:41:11.296Z,67.10
2017-11-18T11:43:38.835Z,66.10
2017-11-18T11:46:07.131Z,65.00
2017-11-18T11:48:35.397Z,66.40
2017-11-18T11:51:02.934Z,66.30
2017-11-18T11:53:30.460Z,66.20
2017-11-18T11:55:58.172Z,67.50
2017-11-18T11:58:25.681Z,67.80
2017-11-18T12:00:53.177Z,68.70
2017-11-18T12:03:20.724Z,69.40
2017-11-18T12:05:48.252Z,70.00
2017-11-18T12:08:16.515Z,70.20
2017-11-18T12:10:44.054Z,70.20
2017-11-18T12:13:11.596Z,70.50
2017-11-18T12:15:39.084Z,70.60
2017-11-18T12:18:06.590Z,70.50
2017-11-18T12:20:34.902Z,70.40
2017-11-18T12:23:02.525Z,70.40
2017-11-18T12:25:30.064Z,71.20
2017-11-18T12:27:57.557Z,71.00
2017-11-18T12:30:25.845Z,72.40
2017-11-18T12:32:54.161Z,71.30
2017-11-18T12:35:21.707Z,71.20
2017-11-18T12:37:49.234Z,71.20
2017-11-18T12:40:16.770Z,70.30
2017-11-18T12:42:44.308Z,70.60
2017-11-18T12:45:11.816Z,70.30
2017-11-18T12:47:39.320Z,70.90
2017-11-18T12:50:06.863Z,71.80
2017-11-18T12:52:34.392Z,71.30
2017-11-18T12:55:01.922Z,71.30
2017-11-18T12:57:29.736Z,70.20
2017-11-18T12:59:57.264Z,70.70
2017-11-18T13:02:24.765Z,71.00
2017-11-18T13:04:52.292Z,70.20
2017-11-18T13:07:19.794Z,69.20
2017-11-18T13:09:47.322Z,69.50
2017-11-18T13:12:14.811Z,69.30
2017-11-18T13:14:42.352Z,69.50
2017-11-18T13:17:09.837Z,68.10
2017-11-18T13:19:37.365Z,68.70
2017-11-18T13:22:04.851Z,68.50
2017-11-18T13:24:32.630Z,68.40
2017-11-18T13:27:00.195Z,67.60
2017-11-18T13:29:27.678Z,67.80
2017-11-18T13:31:55.293Z,68.20
2017-11-18T13:34:22.840Z,68.10
2017-11-18T13:36:50.327Z,69.00
2017-11-18T13:39:17.876Z,67.80
2017-11-18T13:41:45.362Z,68.20
2017-11-18T13:44:12.852Z,66.70
2017-11-18T13:46:40.424Z,66.50
2017-11-18T13:49:07.928Z,66.10
2017-11-18T13:51:35.412Z,66.30
2017-11-18T13:54:02.929Z,66.70
2017-11-18T13:56:31.199Z,66.80
2017-11-18T13:58:58.730Z,65.90
2017-11-18T14:01:26.242Z,66.60
2017-11-18T14:03:54.535Z,66.80
2017-11-18T14:06:22.045Z,66.80
2017-11-18T14:08:49.569Z,67.10
2017-11-18T14:11:17.091Z,67.30
2017-11-18T14:13:44.586Z,67.80
2017-11-18T14:16:12.128Z,66.90
2017-11-18T14:18:40.396Z,67.70
2017-11-18T14:21:07.931Z,67.70
2017-11-18T14:23:35.456Z,67.30
2017-11-18T14:26:03.752Z,67.80
2017-11-18T14:28:31.258Z,67.70
2017-11-18T14:30:58.765Z,67.40
2017-11-18T14:33:26.263Z,66.90
2017-11-18T14:35:53.815Z,67.50
2017-11-18T14:38:21.302Z,68.10
2017-11-18T14:40:48.837Z,67.20
2017-11-18T14:43:16.328Z,67.90
2017-11-18T14:45:43.828Z,67.30
2017-11-18T14:48:11.373Z,67.90
2017-11-18T14:50:38.882Z,67.50
2017-11-18T14:53:06.422Z,66.90
2017-11-18T14:55:34.671Z,66.20
2017-11-18T14:58:02.896Z,66.10
2017-11-18T15:00:30.428Z,66.00
2017-11-18T15:02:58.168Z,66.70
2017-11-18T15:05:26.469Z,67.10
2017-11-18T15:07:54.035Z,67.10
2017-11-18T15:10:21.533Z,67.30
2017-11-18T15:12:49.792Z,67.40
2017-11-18T15:15:32.196Z,67.40
2017-11-18T15:18:05.253Z,67.60
2017-11-18T15:20:39.229Z,67.80
2017-11-18T15:26:16.034Z,68.60
2017-11-18T15:28:49.414Z,66.70
2017-11-18T15:31:35.752Z,66.90
2017-11-18T15:34:03.780Z,65.60
2017-11-18T15:36:34.721Z,65.60
2017-11-18T15:39:03.852Z,65.30
2017-11-18T15:41:31.357Z,66.00
2017-11-18T15:44:12.412Z,65.80
2017-11-18T15:49:45.935Z,66.00
2017-11-18T15:52:13.733Z,69.00
2017-11-18T15:54:41.350Z,71.40
2017-11-18T15:57:09.092Z,72.20
2017-11-18T15:59:36.834Z,73.00
2017-11-18T16:02:04.732Z,73.40
2017-11-18T16:04:32.873Z,73.10
2017-11-18T16:07:00.933Z,73.50
2017-11-18T16:09:29.566Z,73.70
2017-11-18T16:11:57.484Z,73.60
2017-11-18T16:14:27.145Z,73.30
2017-11-18T16:16:55.105Z,72.80
2017-11-18T16:19:23.314Z,72.90
2017-11-18T16:21:52.199Z,72.00
2017-11-18T16:24:19.965Z,72.10
2017-11-18T16:26:47.927Z,71.90
2017-11-18T16:29:16.114Z,72.10
2017-11-18T16:31:43.984Z,70.90
2017-11-18T16:34:11.612Z,70.90
2017-11-18T16:36:41.061Z,69.60
2017-11-18T16:39:08.910Z,69.40
2017-11-18T16:41:36.806Z,69.20
2017-11-18T16:44:04.696Z,69.00
2017-11-18T16:46:32.864Z,69.50
2017-11-18T16:49:00.636Z,69.10
2017-11-18T16:51:28.989Z,68.40
2017-11-18T16:53:57.072Z,67.60
2017-11-18T16:56:25.051Z,69.00
2017-11-18T16:58:52.930Z,68.30
2017-11-18T17:01:20.963Z,68.10
2017-11-18T17:03:50.018Z,65.40
2017-11-18T17:06:17.946Z,65.30
2017-11-18T17:08:46.040Z,64.60
2017-11-18T17:11:14.063Z,64.50
2017-11-18T17:13:41.806Z,64.00
2017-11-18T17:16:09.644Z,64.30
2017-11-18T17:18:38.002Z,64.00
2017-11-18T17:21:06.598Z,64.20
2017-11-18T17:23:34.333Z,64.20
2017-11-18T17:26:02.289Z,64.30
2017-11-18T17:28:30.415Z,64.00
2017-11-18T17:30:58.639Z,63.30
2017-11-18T17:33:26.586Z,63.40
2017-11-18T17:35:55.233Z,64.40
2017-11-18T17:38:23.878Z,64.20
2017-11-18T17:40:51.664Z,63.70
2017-11-18T17:43:19.670Z,64.50
2017-11-18T17:45:47.594Z,64.30
2017-11-18T17:48:15.376Z,64.20
2017-11-18T17:50:44.333Z,65.40
2017-11-18T17:53:12.235Z,66.30
2017-11-18T17:55:40.010Z,66.60
2017-11-18T17:58:07.798Z,65.50
2017-11-18T18:00:35.647Z,65.50
2017-11-18T18:03:03.688Z,65.20
2017-11-18T18:05:32.213Z,66.00
2017-11-18T18:08:00.308Z,65.80
2017-11-18T18:10:28.467Z,65.90
2017-11-18T18:12:56.202Z,65.70
2017-11-18T18:15:24.213Z,65.90
2017-11-18T18:17:52.289Z,65.50
2017-11-18T18:20:20.101Z,65.90
2017-11-18T18:22:48.528Z,67.20
2017-11-18T18:25:16.721Z,66.40
2017-11-18T18:27:45.200Z,66.60
2017-11-18T18:30:14.306Z,65.90
2017-11-18T18:32:42.463Z,66.20
2017-11-18T18:35:11.230Z,66.30
2017-11-18T18:37:38.943Z,65.70
2017-11-18T18:40:06.816Z,66.30
2017-11-18T18:42:35.157Z,66.40
2017-11-18T18:45:04.005Z,65.60
2017-11-18T18:47:32.205Z,65.60
2017-11-18T18:50:00.898Z,65.10
2017-11-18T18:52:28.761Z,65.00
2017-11-18T18:54:56.823Z,65.70
2017-11-18T18:57:24.680Z,65.70
2017-11-18T18:59:52.662Z,66.50
2017-11-18T19:02:20.628Z,66.60
2017-11-18T19:04:48.474Z,66.30
2017-11-18T19:07:16.359Z,66.20
2017-11-18T19:09:44.323Z,66.60
2017-11-18T19:12:13.154Z,66.80
2017-11-18T19:14:40.959Z,67.30
2017-11-18T19:17:09.619Z,67.10
2017-11-18T19:19:37.328Z,67.00
2017-11-18T19:22:05.308Z,67.30
2017-11-18T19:24:33.094Z,67.40
2017-11-18T19:27:00.804Z,67.50
2017-11-18T19:29:28.879Z,67.70
2017-11-18T19:31:56.977Z,67.80
2017-11-18T19:34:25.717Z,67.50
2017-11-18T19:36:53.447Z,67.50
2017-11-18T19:39:22.108Z,67.30
2017-11-18T19:41:50.046Z,67.20
2017-11-18T19:44:17.800Z,67.30
2017-11-18T19:46:45.975Z,67.40
2017-11-18T19:49:13.854Z,67.40
2017-11-18T19:51:41.619Z,67.00
2017-11-18T19:54:09.353Z,67.00
2017-11-18T19:56:38.199Z,68.00
2017-11-18T19:59:05.819Z,68.00
2017-11-18T20:01:34.437Z,67.70
2017-11-18T20:04:02.488Z,67.70
2017-11-18T20:06:30.503Z,67.80
2017-11-18T20:08:58.574Z,67.50
2017-11-18T20:11:26.433Z,67.80
2017-11-18T20:13:54.622Z,67.80
2017-11-18T20:16:23.472Z,67.80
2017-11-18T20:18:52.176Z,67.80
2017-11-18T20:21:21.007Z,68.30
2017-11-18T20:23:48.908Z,68.30
2017-11-18T20:26:16.776Z,68.20
2017-11-18T20:28:44.592Z,67.60
2017-11-18T20:31:12.467Z,67.80
2017-11-18T20:33:40.352Z,67.80
2017-11-18T20:36:08.345Z,68.20
2017-11-18T20:38:36.243Z,68.90
2017-11-18T20:41:04.289Z,67.90
2017-11-18T20:43:32.349Z,67.80
2017-11-18T20:46:00.228Z,68.30
2017-11-18T20:48:27.884Z,68.40
2017-11-18T20:50:55.829Z,68.10
2017-11-18T20:53:24.457Z,68.80
2017-11-18T20:55:52.205Z,68.80
2017-11-18T20:58:20.249Z,68.50
2017-11-18T21:00:48.772Z,68.80
2017-11-18T21:03:16.987Z,68.70
2017-11-18T21:05:44.725Z,68.40
2017-11-18T21:08:12.867Z,68.50
2017-11-18T21:10:41.627Z,68.60
2017-11-18T21:13:09.396Z,68.60
2017-11-18T21:15:37.458Z,68.80
2017-11-18T21:18:05.424Z,68.20
2017-11-18T21:20:33.187Z,68.70
2017-11-18T21:23:01.471Z,68.70
2017-11-18T21:25:29.850Z,68.90
2017-11-18T21:27:57.930Z,68.70
2017-11-18T21:30:25.753Z,68.40
2017-11-18T21:32:54.940Z,68.30
2017-11-18T21:35:22.761Z,68.20
2017-11-18T21:37:50.613Z,68.90
2017-11-18T21:40:18.498Z,68.70
2017-11-18T21:42:48.256Z,68.90
2017-11-18T21:45:16.312Z,69.20
2017-11-18T21:47:44.058Z,69.30
2017-11-18T21:50:12.192Z,69.60
2017-11-18T21:52:39.977Z,69.80
2017-11-18T21:55:08.564Z,69.70
2017-11-18T21:57:36.613Z,69.60
2017-11-18T22:00:05.129Z,69.70
2017-11-18T22:02:33.808Z,69.90
2017-11-18T22:05:02.651Z,69.30
2017-11-18T22:07:30.718Z,69.20
2017-11-18T22:09:58.711Z,69.40
2017-11-18T22:12:26.672Z,69.60
2017-11-18T22:14:54.583Z,69.70
2017-11-18T22:17:22.709Z,69.80
2017-11-18T22:19:50.555Z,69.70
2017-11-18T22:22:18.676Z,69.80
2017-11-18T22:24:46.819Z,69.30
2017-11-18T22:27:14.926Z,69.00
2017-11-18T22:29:43.750Z,69.10
2017-11-18T22:32:11.833Z,69.20
2017-11-18T22:34:39.870Z,68.80
2017-11-18T22:37:07.606Z,68.30
2017-11-18T22:39:35.552Z,68.60
2017-11-18T22:42:04.012Z,68.60
2017-11-18T22:44:32.185Z,68.50
2017-11-18T22:46:59.775Z,68.10
2017-11-18T22:49:27.521Z,68.50
2017-11-18T22:51:55.272Z,68.10
2017-11-18T22:54:23.160Z,68.00
2017-11-18T22:56:51.142Z,68.00
2017-11-18T22:59:18.995Z,67.80
2017-11-18T23:01:46.725Z,67.50
2017-11-18T23:04:15.253Z,67.80
2017-11-18T23:06:43.120Z,67.80
2017-11-18T23:09:11.329Z,68.40
2017-11-18T23:11:39.458Z,68.70
2017-11-18T23:14:07.622Z,68.60
2017-11-18T23:16:36.258Z,69.10
2017-11-18T23:19:04.434Z,69.00
2017-11-18T23:21:33.216Z,68.80
2017-11-18T23:24:01.237Z,69.30
2017-11-18T23:26:30.026Z,69.60
2017-11-18T23:28:57.752Z,69.50
2017-11-18T23:31:25.825Z,69.30
2017-11-18T23:33:53.809Z,69.60
2017-11-18T23:36:21.772Z,70.30
2017-11-18T23:38:49.959Z,71.30
2017-11-18T23:41:18.131Z,72.40
2017-11-18T23:43:46.164Z,73.30
2017-11-18T23:46:14.585Z,76.00
2017-11-18T23:48:42.765Z,75.90
2017-11-18T23:51:10.707Z,77.40
2017-11-18T23:53:39.576Z,77.30
2017-11-18T23:56:07.365Z,77.30
2017-11-18T23:58:35.122Z,77.70
